메인 페이지
METAR-TAF:

METAR-TAF

공항 :

워싱톤, 버지니아, 미국

워싱턴 덜레스 국제공항

위도: 38-56-05N, 경도: 077-26-51W, 고도: 95m

현재 날씨관측

예보는 59분 전, 03:52시(UTC)에 발표되었습니다.
무풍
온도 -3°C
습도 63%
기압 1017 hPa
시정: 16.1km
맑음

METAR: KIAD 200352Z 00000KT 10SM CLR M03/M09 A3004 RMK AO2 SLP173 T10281089

시각: 23:51 (04:51 UTC)

예보

예보는 5 시간 29분 전, 23:22시(UTC)에 발표되었습니다.
예보 대상 시간: 20일 00시부터 21일 06시까지 (UTC)
남남서4kt
시정: 10km
고도 25000ft 상공 구름 조금
20일 1700시부터 (UTC)
서남서8kt
시정: 10km
고도 20000ft 상공 구름 조금
21일 0000시부터 (UTC)
5kt
시정: 10km
고도 20000ft 상공 구름 조금

TAF: KIAD 192322Z 2000/2106 20004KT P6SM FEW250 FM201700 24008KT P6SM FEW200 FM210000 28005KT P6SM FEW200

4,000개 이상의 공항 관측 자료 및 예보 (METAR 및 TAF 보고).

지도상에서 검색 가능한 기상관측소가 노란 점과 빨간 점으로 표시되어 있습니다.

기상관측소 명을 보려면 표시 위로 마우스를 이동하세요.

날씨 관측과 예보를 보려면 클릭하세요.

지도 변경 : 확대하려면 엑스 표시가 있는 녹색 버튼, 축소하려면 빼기 표시가 있는 녹색 버튼, 다음 페이지의 지도를 보려면 녹색 화살표를 클릭하세요.


METAR-TAF: